sensor_id;sensor_type;location;lat;lon;timestamp;pressure;altitude;pressure_sealevel;temperature;humidity
53514;BME280;39768;54.148;12.174;2023-10-09T00:00:44;102072.59;;;7.38;65.80
53514;BME280;39768;54.148;12.174;2023-10-09T00:04:45;102067.28;;;7.36;67.31
53514;BME280;39768;54.148;12.174;2023-10-09T00:08:47;102070.81;;;7.67;69.71
53514;BME280;39768;54.148;12.174;2023-10-09T00:12:52;102068.16;;;7.69;72.24
53514;BME280;39768;54.148;12.174;2023-10-09T00:16:54;102051.28;;;7.55;71.69
53514;BME280;39768;54.148;12.174;2023-10-09T00:21:17;102048.59;;;7.65;73.63
53514;BME280;39768;54.148;12.174;2023-10-09T00:25:21;102054.84;;;7.60;75.60
53514;BME280;39768;54.148;12.174;2023-10-09T00:29:25;102048.59;;;7.65;74.80
53514;BME280;39768;54.148;12.174;2023-10-09T00:33:30;102049.47;;;7.78;75.27
53514;BME280;39768;54.148;12.174;2023-10-09T00:37:31;102040.56;;;7.94;75.33
53514;BME280;39768;54.148;12.174;2023-10-09T00:41:37;102036.16;;;7.77;75.82
53514;BME280;39768;54.148;12.174;2023-10-09T00:45:43;102037.94;;;7.71;79.46
53514;BME280;39768;54.148;12.174;2023-10-09T00:49:51;102032.59;;;7.79;81.26
53514;BME280;39768;54.148;12.174;2023-10-09T00:54:01;102033.44;;;7.96;82.28
53514;BME280;39768;54.148;12.174;2023-10-09T00:58:30;102028.13;;;7.92;82.81
53514;BME280;39768;54.148;12.174;2023-10-09T01:02:37;102027.22;;;7.93;82.24
53514;BME280;39768;54.148;12.174;2023-10-09T01:06:46;102011.38;;;7.46;87.90
53514;BME280;39768;54.148;12.174;2023-10-09T01:11:08;101988.25;;;7.54;88.87
53514;BME280;39768;54.148;12.174;2023-10-09T01:15:11;101977.59;;;7.52;91.60
53514;BME280;39768;54.148;12.174;2023-10-09T01:19:33;101973.16;;;7.59;90.70
53514;BME280;39768;54.148;12.174;2023-10-09T01:23:35;101958.09;;;7.44;91.74
53514;BME280;39768;54.148;12.174;2023-10-09T01:27:44;101959.78;;;7.74;90.76
53514;BME280;39768;54.148;12.174;2023-10-09T01:31:47;101942.13;;;7.38;93.20
53514;BME280;39768;54.148;12.174;2023-10-09T01:36:02;101931.38;;;7.67;93.16
53514;BME280;39768;54.148;12.174;2023-10-09T01:40:05;101915.31;;;7.85;90.73
53514;BME280;39768;54.148;12.174;2023-10-09T01:44:28;101902.00;;;7.85;92.51
53514;BME280;39768;54.148;12.174;2023-10-09T01:48:32;101905.69;;;7.54;94.29
53514;BME280;39768;54.148;12.174;2023-10-09T01:52:40;101904.69;;;7.78;93.57
53514;BME280;39768;54.148;12.174;2023-10-09T01:56:44;101907.38;;;7.76;93.44
53514;BME280;39768;54.148;12.174;2023-10-09T02:00:48;101902.97;;;7.64;92.78
53514;BME280;39768;54.148;12.174;2023-10-09T02:08:55;101890.53;;;7.68;92.87
53514;BME280;39768;54.148;12.174;2023-10-09T02:17:00;101886.09;;;7.64;96.15
53514;BME280;39768;54.148;12.174;2023-10-09T02:21:08;101886.19;;;7.40;97.71
53514;BME280;39768;54.148;12.174;2023-10-09T04:20:24;101720.78;;;7.88;100.00
53514;BME280;39768;54.148;12.174;2023-10-09T04:24:26;101706.69;;;7.68;100.00
53514;BME280;39768;54.148;12.174;2023-10-09T04:28:27;101714.44;;;8.00;100.00
53514;BME280;39768;54.148;12.174;2023-10-09T04:32:31;101718.34;;;7.53;100.00
53514;BME280;39768;54.148;12.174;2023-10-09T04:36:33;101713.56;;;7.98;100.00
53514;BME280;39768;54.148;12.174;2023-10-09T04:40:48;101709.13;;;7.98;100.00
53514;BME280;39768;54.148;12.174;2023-10-09T04:44:53;101695.81;;;7.98;100.00
53514;BME280;39768;54.148;12.174;2023-10-09T04:49:04;101695.94;;;7.82;100.00
53514;BME280;39768;54.148;12.174;2023-10-09T04:53:26;101691.38;;;7.97;100.00
53514;BME280;39768;54.148;12.174;2023-10-09T04:57:43;101686.91;;;8.01;100.00
53514;BME280;39768;54.148;12.174;2023-10-09T05:01:45;101682.56;;;7.91;100.00
53514;BME280;39768;54.148;12.174;2023-10-09T05:05:59;101678.06;;;7.94;100.00
53514;BME280;39768;54.148;12.174;2023-10-09T05:10:01;101676.53;;;7.63;100.00
53514;BME280;39768;54.148;12.174;2023-10-09T05:14:21;101663.16;;;7.72;100.00
53514;BME280;39768;54.148;12.174;2023-10-09T05:18:39;101663.28;;;7.55;100.00
53514;BME280;39768;54.148;12.174;2023-10-09T05:22:41;101656.84;;;7.81;100.00
53514;BME280;39768;54.148;12.174;2023-10-09T05:26:54;101661.50;;;7.57;100.00
53514;BME280;39768;54.148;12.174;2023-10-09T05:31:16;101656.16;;;7.60;100.00
53514;BME280;39768;54.148;12.174;2023-10-09T05:35:37;101649.94;;;7.58;100.00
53514;BME280;39768;54.148;12.174;2023-10-09T05:39:44;101649.06;;;7.55;100.00
53514;BME280;39768;54.148;12.174;2023-10-09T05:44:19;101659.69;;;7.61;100.00
53514;BME280;39768;54.148;12.174;2023-10-09T05:48:59;101659.53;;;7.79;100.00
53514;BME280;39768;54.148;12.174;2023-10-09T05:53:11;101653.31;;;7.80;100.00
53514;BME280;39768;54.148;12.174;2023-10-09T05:57:33;101655.31;;;7.54;100.00
53514;BME280;39768;54.148;12.174;2023-10-09T06:01:53;101646.19;;;7.84;100.00
53514;BME280;39768;54.148;12.174;2023-10-09T06:06:03;101643.34;;;8.03;100.00
53514;BME280;39768;54.148;12.174;2023-10-09T06:10:07;101641.47;;;8.12;100.00
53514;BME280;39768;54.148;12.174;2023-10-09T06:14:20;101637.19;;;7.94;100.00
53514;BME280;39768;54.148;12.174;2023-10-09T06:18:31;101649.34;;;8.27;100.00
53514;BME280;39768;54.148;12.174;2023-10-09T06:22:36;101637.91;;;8.14;100.00
53514;BME280;39768;54.148;12.174;2023-10-09T06:26:38;101639.63;;;8.21;100.00
53514;BME280;39768;54.148;12.174;2023-10-09T06:30:42;101632.31;;;8.41;100.00
53514;BME280;39768;54.148;12.174;2023-10-09T06:34:52;101626.03;;;8.47;100.00
53514;BME280;39768;54.148;12.174;2023-10-09T06:38:58;101634.19;;;8.32;100.00
53514;BME280;39768;54.148;12.174;2023-10-09T06:43:18;101630.66;;;8.30;100.00
53514;BME280;39768;54.148;12.174;2023-10-09T06:47:23;101633.38;;;8.25;100.00
53514;BME280;39768;54.148;12.174;2023-10-09T06:51:25;101636.91;;;8.26;100.00
53514;BME280;39768;54.148;12.174;2023-10-09T06:55:28;101639.41;;;8.44;100.00
53514;BME280;39768;54.148;12.174;2023-10-09T06:59:36;101645.50;;;8.52;100.00
53514;BME280;39768;54.148;12.174;2023-10-09T07:04:07;101651.66;;;8.62;100.00
53514;BME280;39768;54.148;12.174;2023-10-09T07:08:21;101655.22;;;8.61;100.00
53514;BME280;39768;54.148;12.174;2023-10-09T07:12:38;101653.91;;;8.19;100.00
53514;BME280;39768;54.148;12.174;2023-10-09T07:16:44;101654.31;;;8.63;100.00
53514;BME280;39768;54.148;12.174;2023-10-09T07:21:04;101641.75;;;8.70;100.00
53514;BME280;39768;54.148;12.174;2023-10-09T07:25:13;101655.53;;;9.07;99.82
53514;BME280;39768;54.148;12.174;2023-10-09T07:29:16;101643.09;;;9.03;100.00
53514;BME280;39768;54.148;12.174;2023-10-09T07:33:18;101648.44;;;9.03;100.00
53514;BME280;39768;54.148;12.174;2023-10-09T07:37:20;101664.03;;;9.35;98.57
53514;BME280;39768;54.148;12.174;2023-10-09T07:41:24;101670.78;;;9.60;97.21
53514;BME280;39768;54.148;12.174;2023-10-09T07:45:25;101671.47;;;9.74;99.35
53514;BME280;39768;54.148;12.174;2023-10-09T07:49:27;101660.63;;;9.84;96.59
53514;BME280;39768;54.148;12.174;2023-10-09T07:53:30;101671.00;;;9.46;99.44
53514;BME280;39768;54.148;12.174;2023-10-09T07:57:44;101658.50;;;9.49;98.52
53514;BME280;39768;54.148;12.174;2023-10-09T08:06:45;101659.66;;;9.86;96.72
53514;BME280;39768;54.148;12.174;2023-10-09T08:11:09;101653.25;;;9.42;97.90
53514;BME280;39768;54.148;12.174;2023-10-09T08:15:29;101647.59;;;10.14;98.28
53514;BME280;39768;54.148;12.174;2023-10-09T08:19:53;101652.03;;;10.63;95.32
53514;BME280;39768;54.148;12.174;2023-10-09T08:23:59;101647.66;;;10.59;94.49
53514;BME280;39768;54.148;12.174;2023-10-09T08:28:06;101649.94;;;10.31;93.71
53514;BME280;39768;54.148;12.174;2023-10-09T08:32:16;101668.59;;;10.36;94.55
53514;BME280;39768;54.148;12.174;2023-10-09T08:36:42;101656.03;;;10.41;95.11
53514;BME280;39768;54.148;12.174;2023-10-09T08:40:53;101659.34;;;10.06;98.75
53514;BME280;39768;54.148;12.174;2023-10-09T08:45:02;101661.59;;;10.29;97.36
53514;BME280;39768;54.148;12.174;2023-10-09T08:49:06;101661.75;;;10.21;96.82
53514;BME280;39768;54.148;12.174;2023-10-09T08:53:14;101669.13;;;11.01;94.88
53514;BME280;39768;54.148;12.174;2023-10-09T08:57:17;101660.94;;;11.07;92.63
53514;BME280;39768;54.148;12.174;2023-10-09T09:01:20;101657.94;;;11.22;90.91
53514;BME280;39768;54.148;12.174;2023-10-09T09:05:27;101649.75;;;11.28;90.90
53514;BME280;39768;54.148;12.174;2023-10-09T09:09:31;101650.06;;;10.27;94.75
53514;BME280;39768;54.148;12.174;2023-10-09T09:13:33;101643.25;;;11.00;89.77
53514;BME280;39768;54.148;12.174;2023-10-09T09:17:35;101641.03;;;11.18;89.59
53514;BME280;39768;54.148;12.174;2023-10-09T09:21:42;101643.09;;;11.83;89.13
53514;BME280;39768;54.148;12.174;2023-10-09T09:25:46;101630.59;;;11.82;86.30
53514;BME280;39768;54.148;12.174;2023-10-09T09:30:00;101626.75;;;11.92;87.98
53514;BME280;39768;54.148;12.174;2023-10-09T09:34:09;101627.78;;;11.51;88.98
53514;BME280;39768;54.148;12.174;2023-10-09T09:38:19;101624.09;;;11.92;85.02
53514;BME280;39768;54.148;12.174;2023-10-09T09:42:24;101618.38;;;12.06;85.37
53514;BME280;39768;54.148;12.174;2023-10-09T09:46:28;101607.69;;;12.68;84.56
53514;BME280;39768;54.148;12.174;2023-10-09T09:50:36;101598.00;;;12.31;79.93
53514;BME280;39768;54.148;12.174;2023-10-09T09:54:48;101602.03;;;11.81;84.79
53514;BME280;39768;54.148;12.174;2023-10-09T09:58:51;101593.94;;;12.49;83.55
53514;BME280;39768;54.148;12.174;2023-10-09T10:03:05;101589.06;;;12.31;83.48
53514;BME280;39768;54.148;12.174;2023-10-09T10:07:08;101599.81;;;12.92;82.39
53514;BME280;39768;54.148;12.174;2023-10-09T10:11:46;101596.00;;;13.00;79.76
53514;BME280;39768;54.148;12.174;2023-10-09T10:15:58;101603.53;;;13.16;77.48
53514;BME280;39768;54.148;12.174;2023-10-09T10:20:04;101598.56;;;12.75;79.30
53514;BME280;39768;54.148;12.174;2023-10-09T10:29:15;101604.44;;;12.56;77.81
53514;BME280;39768;54.148;12.174;2023-10-09T10:37:56;101602.97;;;12.77;78.87
53514;BME280;39768;54.148;12.174;2023-10-09T10:42:09;101618.03;;;12.50;79.04
53514;BME280;39768;54.148;12.174;2023-10-09T10:46:19;101616.00;;;12.58;81.41
53514;BME280;39768;54.148;12.174;2023-10-09T10:50:40;101606.91;;;12.33;80.41
53514;BME280;39768;54.148;12.174;2023-10-09T10:54:47;101599.63;;;12.37;80.02
53514;BME280;39768;54.148;12.174;2023-10-09T10:59:06;101593.72;;;12.24;83.08
53514;BME280;39768;54.148;12.174;2023-10-09T11:03:20;101600.81;;;12.57;82.61
53514;BME280;39768;54.148;12.174;2023-10-09T11:07:31;101595.19;;;12.36;81.62
53514;BME280;39768;54.148;12.174;2023-10-09T11:11:33;101601.03;;;12.81;79.18
53514;BME280;39768;54.148;12.174;2023-10-09T11:15:42;101591.47;;;13.29;80.65
53514;BME280;39768;54.148;12.174;2023-10-09T11:19:59;101588.31;;;12.56;78.85
53514;BME280;39768;54.148;12.174;2023-10-09T11:24:20;101580.69;;;12.74;80.86
53514;BME280;39768;54.148;12.174;2023-10-09T11:28:33;101581.09;;;11.95;83.32
53514;BME280;39768;54.148;12.174;2023-10-09T11:33:05;101584.81;;;12.22;84.11
53514;BME280;39768;54.148;12.174;2023-10-09T11:37:13;101585.00;;;12.48;82.55
53514;BME280;39768;54.148;12.174;2023-10-09T11:41:32;101583.63;;;12.95;79.25
53514;BME280;39768;54.148;12.174;2023-10-09T11:45:42;101581.13;;;13.17;77.52
53514;BME280;39768;54.148;12.174;2023-10-09T11:49:57;101586.84;;;12.77;79.78
53514;BME280;39768;54.148;12.174;2023-10-09T11:54:03;101588.03;;;12.04;84.14
53514;BME280;39768;54.148;12.174;2023-10-09T11:58:05;101587.25;;;12.93;81.17
53514;BME280;39768;54.148;12.174;2023-10-09T12:02:09;101582.41;;;12.76;79.90
53514;BME280;39768;54.148;12.174;2023-10-09T12:06:13;101589.31;;;12.83;79.64
53514;BME280;39768;54.148;12.174;2023-10-09T12:10:16;101572.72;;;12.71;81.90
53514;BME280;39768;54.148;12.174;2023-10-09T12:14:25;101574.50;;;13.00;81.98
53514;BME280;39768;54.148;12.174;2023-10-09T12:18:34;101586.88;;;12.76;80.88
53514;BME280;39768;54.148;12.174;2023-10-09T12:22:36;101576.78;;;12.22;83.17
53514;BME280;39768;54.148;12.174;2023-10-09T12:26:42;101568.53;;;12.30;84.83
53514;BME280;39768;54.148;12.174;2023-10-09T12:30:46;101580.50;;;12.80;83.49
53514;BME280;39768;54.148;12.174;2023-10-09T12:34:51;101569.16;;;12.70;81.66
53514;BME280;39768;54.148;12.174;2023-10-09T12:38:53;101565.47;;;13.02;81.70
53514;BME280;39768;54.148;12.174;2023-10-09T12:43:00;101561.38;;;13.18;79.75
53514;BME280;39768;54.148;12.174;2023-10-09T12:47:02;101560.34;;;13.22;82.61
53514;BME280;39768;54.148;12.174;2023-10-09T12:51:06;101557.84;;;12.88;83.68
53514;BME280;39768;54.148;12.174;2023-10-09T12:55:08;101558.47;;;12.96;82.99
53514;BME280;39768;54.148;12.174;2023-10-09T12:59:18;101557.53;;;12.70;84.64
53514;BME280;39768;54.148;12.174;2023-10-09T13:03:21;101561.09;;;12.70;83.22
53514;BME280;39768;54.148;12.174;2023-10-09T13:07:24;101566.50;;;12.69;82.33
53514;BME280;39768;54.148;12.174;2023-10-09T13:11:26;101553.25;;;12.64;85.26
53514;BME280;39768;54.148;12.174;2023-10-09T13:15:29;101545.63;;;12.47;84.69
53514;BME280;39768;54.148;12.174;2023-10-09T13:19:39;101549.28;;;12.76;84.21
53514;BME280;39768;54.148;12.174;2023-10-09T13:23:41;101544.38;;;12.59;83.83
53514;BME280;39768;54.148;12.174;2023-10-09T13:27:49;101558.72;;;12.89;83.51
53514;BME280;39768;54.148;12.174;2023-10-09T13:31:52;101557.16;;;12.82;84.70
53514;BME280;39768;54.148;12.174;2023-10-09T13:36:00;101570.72;;;12.46;83.99
53514;BME280;39768;54.148;12.174;2023-10-09T13:40:03;101580.25;;;12.56;83.05
53514;BME280;39768;54.148;12.174;2023-10-09T13:44:13;101583.84;;;12.88;82.02
53514;BME280;39768;54.148;12.174;2023-10-09T13:48:15;101579.75;;;12.75;82.24
53514;BME280;39768;54.148;12.174;2023-10-09T13:52:19;101567.88;;;12.82;83.17
53514;BME280;39768;54.148;12.174;2023-10-09T13:56:23;101579.69;;;12.78;84.50
53514;BME280;39768;54.148;12.174;2023-10-09T14:00:29;101570.94;;;12.70;87.57
53514;BME280;39768;54.148;12.174;2023-10-09T14:04:35;101575.81;;;12.55;88.23
53514;BME280;39768;54.148;12.174;2023-10-09T14:08:38;101565.06;;;12.24;94.48
53514;BME280;39768;54.148;12.174;2023-10-09T14:12:46;101566.84;;;12.87;90.73
53514;BME280;39768;54.148;12.174;2023-10-09T14:16:47;101571.13;;;12.33;92.69
53514;BME280;39768;54.148;12.174;2023-10-09T14:20:49;101560.03;;;12.45;94.72
53514;BME280;39768;54.148;12.174;2023-10-09T14:24:51;101569.31;;;12.66;93.23
53514;BME280;39768;54.148;12.174;2023-10-09T14:28:57;101565.38;;;12.77;92.05
53514;BME280;39768;54.148;12.174;2023-10-09T14:32:59;101568.50;;;12.60;92.77
53514;BME280;39768;54.148;12.174;2023-10-09T14:37:03;101572.53;;;12.46;93.12
53514;BME280;39768;54.148;12.174;2023-10-09T14:41:08;101556.38;;;12.47;93.66
53514;BME280;39768;54.148;12.174;2023-10-09T14:45:13;101552.78;;;12.79;93.32
53514;BME280;39768;54.148;12.174;2023-10-09T14:49:17;101544.19;;;12.36;96.03
53514;BME280;39768;54.148;12.174;2023-10-09T14:53:23;101532.63;;;12.65;94.56
53514;BME280;39768;54.148;12.174;2023-10-09T14:57:28;101534.88;;;12.49;95.50
53514;BME280;39768;54.148;12.174;2023-10-09T15:01:35;101524.81;;;12.24;97.34
53514;BME280;39768;54.148;12.174;2023-10-09T15:05:36;101531.59;;;12.38;96.93
53514;BME280;39768;54.148;12.174;2023-10-09T15:09:38;101539.44;;;12.76;94.72
53514;BME280;39768;54.148;12.174;2023-10-09T15:13:41;101543.50;;;12.58;92.79
53514;BME280;39768;54.148;12.174;2023-10-09T15:17:43;101551.59;;;12.57;93.45
53514;BME280;39768;54.148;12.174;2023-10-09T15:21:47;101546.56;;;11.83;97.47
53514;BME280;39768;54.148;12.174;2023-10-09T15:25:48;101551.88;;;12.17;95.03
53514;BME280;39768;54.148;12.174;2023-10-09T15:29:53;101558.66;;;12.30;95.69
53514;BME280;39768;54.148;12.174;2023-10-09T15:33:57;101562.47;;;12.21;95.99
53514;BME280;39768;54.148;12.174;2023-10-09T15:38:02;101578.72;;;12.17;94.14
53514;BME280;39768;54.148;12.174;2023-10-09T15:42:07;101583.31;;;12.44;92.75
53514;BME280;39768;54.148;12.174;2023-10-09T15:46:12;101581.44;;;12.15;95.36
53514;BME280;39768;54.148;12.174;2023-10-09T15:50:17;101586.19;;;12.37;93.41
53514;BME280;39768;54.148;12.174;2023-10-09T15:54:21;101595.09;;;12.39;95.12
53514;BME280;39768;54.148;12.174;2023-10-09T15:58:23;101593.81;;;12.52;93.33
53514;BME280;39768;54.148;12.174;2023-10-09T16:02:25;101594.47;;;12.60;93.57
53514;BME280;39768;54.148;12.174;2023-10-09T16:06:27;101596.31;;;12.27;96.07
53514;BME280;39768;54.148;12.174;2023-10-09T16:10:32;101595.53;;;12.54;93.64
53514;BME280;39768;54.148;12.174;2023-10-09T16:14:36;101601.28;;;12.73;93.45
53514;BME280;39768;54.148;12.174;2023-10-09T16:18:37;101604.81;;;12.75;92.93
53514;BME280;39768;54.148;12.174;2023-10-09T16:22:41;101600.44;;;12.71;93.28
53514;BME280;39768;54.148;12.174;2023-10-09T16:26:43;101595.19;;;12.36;95.61
53514;BME280;39768;54.148;12.174;2023-10-09T16:30:50;101602.50;;;12.61;94.50
53514;BME280;39768;54.148;12.174;2023-10-09T16:34:51;101608.50;;;12.71;92.88
53514;BME280;39768;54.148;12.174;2023-10-09T16:38:54;101607.81;;;12.65;92.92
53514;BME280;39768;54.148;12.174;2023-10-09T16:42:57;101595.19;;;12.67;94.41
53514;BME280;39768;54.148;12.174;2023-10-09T16:47:03;101595.53;;;12.54;93.80
53514;BME280;39768;54.148;12.174;2023-10-09T16:51:14;101582.44;;;12.44;93.58
53514;BME280;39768;54.148;12.174;2023-10-09T16:55:23;101597.97;;;12.33;94.27
53514;BME280;39768;54.148;12.174;2023-10-09T16:59:29;101602.56;;;12.27;94.80
53514;BME280;39768;54.148;12.174;2023-10-09T17:03:50;101600.91;;;12.22;95.32
53514;BME280;39768;54.148;12.174;2023-10-09T17:08:01;101596.09;;;12.36;96.17
53514;BME280;39768;54.148;12.174;2023-10-09T17:12:08;101601.06;;;12.17;97.29
53514;BME280;39768;54.148;12.174;2023-10-09T17:16:17;101606.97;;;12.30;97.89
53514;BME280;39768;54.148;12.174;2023-10-09T17:20:20;101614.91;;;12.35;97.39
53514;BME280;39768;54.148;12.174;2023-10-09T17:24:30;101606.34;;;12.20;98.29
53514;BME280;39768;54.148;12.174;2023-10-09T17:28:35;101617.03;;;12.22;99.22
53514;BME280;39768;54.148;12.174;2023-10-09T17:32:39;101615.06;;;12.28;97.57
53514;BME280;39768;54.148;12.174;2023-10-09T17:36:45;101615.78;;;12.35;96.56
53514;BME280;39768;54.148;12.174;2023-10-09T17:41:07;101609.34;;;12.41;97.77
53514;BME280;39768;54.148;12.174;2023-10-09T17:46:14;101614.78;;;12.38;97.49
53514;BME280;39768;54.148;12.174;2023-10-09T17:56:57;101621.53;;;12.52;96.26
53514;BME280;39768;54.148;12.174;2023-10-09T18:01:58;101627.03;;;12.49;96.49
53514;BME280;39768;54.148;12.174;2023-10-09T18:06:23;101631.41;;;12.52;96.70
53514;BME280;39768;54.148;12.174;2023-10-09T18:11:00;101630.22;;;12.31;98.77
53514;BME280;39768;54.148;12.174;2023-10-09T18:15:20;101640.28;;;11.89;100.00
53514;BME280;39768;54.148;12.174;2023-10-09T18:25:24;101641.56;;;12.07;100.00
53514;BME280;39768;54.148;12.174;2023-10-09T18:29:58;101635.88;;;12.20;100.00
53514;BME280;39768;54.148;12.174;2023-10-09T18:34:31;101636.88;;;12.16;100.00
53514;BME280;39768;54.148;12.174;2023-10-09T18:39:13;101635.97;;;11.82;100.00
53514;BME280;39768;54.148;12.174;2023-10-09T18:43:25;101648.22;;;11.55;100.00
53514;BME280;39768;54.148;12.174;2023-10-09T18:48:12;101648.50;;;11.44;100.00
53514;BME280;39768;54.148;12.174;2023-10-09T18:58:53;101665.69;;;11.34;100.00
53514;BME280;39768;54.148;12.174;2023-10-09T19:03:53;101672.22;;;11.98;100.00
53514;BME280;39768;54.148;12.174;2023-10-09T19:08:24;101682.75;;;11.70;100.00
53514;BME280;39768;54.148;12.174;2023-10-09T19:13:17;101685.63;;;11.98;100.00
53514;BME280;39768;54.148;12.174;2023-10-09T19:17:45;101680.84;;;12.11;100.00
53514;BME280;39768;54.148;12.174;2023-10-09T19:22:28;101683.56;;;12.09;100.00
53514;BME280;39768;54.148;12.174;2023-10-09T19:27:00;101682.00;;;12.01;100.00
53514;BME280;39768;54.148;12.174;2023-10-09T19:31:45;101689.97;;;12.04;100.00
53514;BME280;39768;54.148;12.174;2023-10-09T19:36:06;101684.56;;;12.05;100.00
53514;BME280;39768;54.148;12.174;2023-10-09T19:41:05;101684.47;;;12.08;100.00
53514;BME280;39768;54.148;12.174;2023-10-09T19:45:36;101693.31;;;12.12;100.00
53514;BME280;39768;54.148;12.174;2023-10-09T19:50:09;101688.00;;;12.10;100.00
53514;BME280;39768;54.148;12.174;2023-10-09T19:54:44;101682.81;;;12.04;100.00
53514;BME280;39768;54.148;12.174;2023-10-09T19:59:26;101692.72;;;12.01;100.00
53514;BME280;39768;54.148;12.174;2023-10-09T20:03:42;101689.22;;;11.97;100.00
53514;BME280;39768;54.148;12.174;2023-10-09T20:07:59;101692.38;;;12.14;100.00
53514;BME280;39768;54.148;12.174;2023-10-09T20:12:54;101698.50;;;12.19;100.00
53514;BME280;39768;54.148;12.174;2023-10-09T20:16:59;101697.91;;;12.07;100.00
53514;BME280;39768;54.148;12.174;2023-10-09T20:21:38;101710.06;;;12.21;100.00
53514;BME280;39768;54.148;12.174;2023-10-09T20:26:07;101711.13;;;12.16;100.00
53514;BME280;39768;54.148;12.174;2023-10-09T20:30:33;101708.25;;;12.22;100.00
53514;BME280;39768;54.148;12.174;2023-10-09T20:35:10;101708.31;;;12.20;100.00
53514;BME280;39768;54.148;12.174;2023-10-09T20:39:26;101696.94;;;12.11;100.00
53514;BME280;39768;54.148;12.174;2023-10-09T20:43:40;101691.78;;;12.03;100.00
53514;BME280;39768;54.148;12.174;2023-10-09T20:48:06;101696.50;;;11.92;100.00
53514;BME280;39768;54.148;12.174;2023-10-09T20:52:21;101694.50;;;12.02;100.00
53514;BME280;39768;54.148;12.174;2023-10-09T20:56:35;101690.47;;;11.84;100.00
53514;BME280;39768;54.148;12.174;2023-10-09T21:00:51;101690.03;;;11.62;100.00
53514;BME280;39768;54.148;12.174;2023-10-09T21:05:11;101693.97;;;11.87;100.00
53514;BME280;39768;54.148;12.174;2023-10-09T21:09:35;101693.75;;;11.95;100.00
53514;BME280;39768;54.148;12.174;2023-10-09T21:13:46;101693.66;;;12.00;100.00
53514;BME280;39768;54.148;12.174;2023-10-09T21:17:55;101700.03;;;11.94;100.00
53514;BME280;39768;54.148;12.174;2023-10-09T21:22:31;101693.56;;;12.03;100.00
53514;BME280;39768;54.148;12.174;2023-10-09T21:27:18;101691.44;;;11.80;100.00
53514;BME280;39768;54.148;12.174;2023-10-09T21:31:47;101700.41;;;11.79;100.00
53514;BME280;39768;54.148;12.174;2023-10-09T21:36:06;101698.53;;;11.82;100.00
53514;BME280;39768;54.148;12.174;2023-10-09T21:40:28;101701.09;;;11.48;100.00
53514;BME280;39768;54.148;12.174;2023-10-09T21:45:15;101706.28;;;11.95;100.00
53514;BME280;39768;54.148;12.174;2023-10-09T21:49:35;101699.81;;;12.03;100.00
53514;BME280;39768;54.148;12.174;2023-10-09T21:53:47;101697.25;;;11.99;100.00
53514;BME280;39768;54.148;12.174;2023-10-09T21:58:10;101705.19;;;12.03;100.00
53514;BME280;39768;54.148;12.174;2023-10-09T22:03:01;101697.56;;;11.86;100.00
53514;BME280;39768;54.148;12.174;2023-10-09T22:07:34;101694.34;;;11.71;100.00
53514;BME280;39768;54.148;12.174;2023-10-09T22:12:22;101694.59;;;11.60;100.00
53514;BME280;39768;54.148;12.174;2023-10-09T22:17:17;101705.94;;;11.73;100.00
53514;BME280;39768;54.148;12.174;2023-10-09T22:21:42;101709.63;;;11.27;100.00
53514;BME280;39768;54.148;12.174;2023-10-09T22:26:32;101709.66;;;11.66;100.00
53514;BME280;39768;54.148;12.174;2023-10-09T22:30:59;101713.91;;;11.76;100.00
53514;BME280;39768;54.148;12.174;2023-10-09T22:35:38;101702.94;;;11.05;100.00
53514;BME280;39768;54.148;12.174;2023-10-09T22:40:09;101709.97;;;11.90;100.00
53514;BME280;39768;54.148;12.174;2023-10-09T22:44:56;101712.31;;;12.04;100.00
53514;BME280;39768;54.148;12.174;2023-10-09T22:49:30;101706.59;;;11.82;100.00
53514;BME280;39768;54.148;12.174;2023-10-09T22:54:07;101704.34;;;11.22;100.00
53514;BME280;39768;54.148;12.174;2023-10-09T22:58:25;101703.00;;;11.83;100.00
53514;BME280;39768;54.148;12.174;2023-10-09T23:02:34;101700.03;;;11.94;100.00
53514;BME280;39768;54.148;12.174;2023-10-09T23:06:58;101704.25;;;12.06;100.00
53514;BME280;39768;54.148;12.174;2023-10-09T23:11:46;101698.25;;;11.93;100.00
53514;BME280;39768;54.148;12.174;2023-10-09T23:15:59;101701.00;;;11.91;100.00
53514;BME280;39768;54.148;12.174;2023-10-09T23:20:30;101703.72;;;11.90;100.00
53514;BME280;39768;54.148;12.174;2023-10-09T23:25:06;101706.22;;;11.98;100.00
53514;BME280;39768;54.148;12.174;2023-10-09T23:29:41;101702.47;;;12.05;100.00
53514;BME280;39768;54.148;12.174;2023-10-09T23:33:55;101700.59;;;12.07;100.00
53514;BME280;39768;54.148;12.174;2023-10-09T23:38:05;101705.84;;;12.11;100.00
53514;BME280;39768;54.148;12.174;2023-10-09T23:42:41;101706.78;;;12.10;100.00
53514;BME280;39768;54.148;12.174;2023-10-09T23:47:06;101705.97;;;12.41;100.00
53514;BME280;39768;54.148;12.174;2023-10-09T23:51:28;101704.94;;;12.46;100.00
53514;BME280;39768;54.148;12.174;2023-10-09T23:55:54;101703.09;;;12.14;100.00
